Time;durP1;ratioP1;P1;durP2;ratioP2;P2;SDS_P1;SDS_P2;PMS_P1;PMS_P2;Temp;Humidity;BMP_temperature;BMP_pressure;BME280_temperature;BME280_humidity;BME280_pressure;Samples;Min_cycle;Max_cycle;Signal;HPM_P1;HPM_P2
2024/01/19 00:00:38;;;;;;;;;;;-2.10;99.90;;;;;;5053267;28;19924;-64
2024/01/19 00:03:05;;;;;;;;;;;-2.10;99.90;;;;;;5057764;28;19929;-61
2024/01/19 00:05:31;;;;;;;;;;;-2.10;99.90;;;;;;5059493;28;19952;-61
2024/01/19 00:07:58;;;;;;;;;;;-2.10;99.90;;;;;;5054023;28;19931;-63
2024/01/19 00:10:25;;;;;;;;;;;-2.10;99.90;;;;;;5052603;28;19925;-66
2024/01/19 00:12:52;;;;;;;;;;;-2.10;99.90;;;;;;5053836;28;19929;-60
2024/01/19 00:15:19;;;;;;;;;;;-2.10;99.90;;;;;;5048628;28;20022;-62
2024/01/19 00:17:58;;;;;;;;;;;-2.10;99.90;;;;;;5053286;28;19933;-60
2024/01/19 00:20:25;;;;;;;;;;;-2.00;99.90;;;;;;5057800;28;19928;-60
2024/01/19 00:22:52;;;;;;;;;;;-2.00;99.90;;;;;;5054949;28;20029;-61
2024/01/19 00:25:18;;;;;;;;;;;-2.00;99.90;;;;;;5059066;28;20023;-61
2024/01/19 00:27:46;;;;;;;;;;;-2.00;99.90;;;;;;5056299;28;19929;-63
2024/01/19 00:30:13;;;;;;;;;;;-2.00;99.90;;;;;;5055414;28;19924;-62
2024/01/19 00:32:39;;;;;;;;;;;-2.10;99.90;;;;;;5057589;28;19925;-61
2024/01/19 00:35:06;;;;;;;;;;;-2.10;99.90;;;;;;5035034;28;19986;-60
2024/01/19 00:37:34;;;;;;;;;;;-2.10;99.90;;;;;;5054913;28;20374;-60
2024/01/19 00:40:01;;;;;;;;;;;-2.10;99.90;;;;;;5049651;28;19952;-63
2024/01/19 00:42:28;;;;;;;;;;;-2.00;99.90;;;;;;5055800;28;19925;-60
2024/01/19 00:44:55;;;;;;;;;;;-2.00;99.90;;;;;;5060403;28;19956;-63
2024/01/19 00:47:21;;;;;;;;;;;-1.90;99.90;;;;;;5058077;28;19924;-61
2024/01/19 00:49:48;;;;;;;;;;;-1.90;99.90;;;;;;5054283;28;19932;-61
2024/01/19 00:52:15;;;;;;;;;;;-1.90;99.90;;;;;;5059332;28;19979;-60
2024/01/19 00:54:42;;;;;;;;;;;-1.80;99.90;;;;;;5048188;28;19929;-60
2024/01/19 00:57:09;;;;;;;;;;;-1.80;99.90;;;;;;5053842;28;19931;-62
2024/01/19 00:59:35;;;;;;;;;;;-1.60;99.90;;;;;;5053304;28;19955;-61
2024/01/19 01:02:02;;;;;;;;;;;-1.60;99.90;;;;;;5052904;28;20282;-62
2024/01/19 01:04:29;;;;;;;;;;;-1.60;99.90;;;;;;5060195;28;19962;-61
2024/01/19 01:06:56;;;;;;;;;;;-1.50;99.90;;;;;;5063193;28;20015;-61
2024/01/19 01:09:23;;;;;;;;;;;-1.50;99.90;;;;;;5056130;28;19928;-60
2024/01/19 01:11:50;;;;;;;;;;;-1.50;99.90;;;;;;5052424;28;19971;-67
2024/01/19 01:14:17;;;;;;;;;;;-1.40;99.90;;;;;;5053678;28;19940;-60
2024/01/19 01:16:43;;;;;;;;;;;-1.40;99.90;;;;;;5054397;28;20331;-60
2024/01/19 01:19:10;;;;;;;;;;;-1.30;99.90;;;;;;5055960;28;19982;-60
2024/01/19 01:21:37;;;;;;;;;;;-1.30;99.90;;;;;;5055098;28;20406;-64
2024/01/19 01:24:04;;;;;;;;;;;-1.30;99.90;;;;;;5053693;28;20236;-60
2024/01/19 01:26:31;;;;;;;;;;;-1.30;99.90;;;;;;5054479;28;19928;-62
2024/01/19 01:28:58;;;;;;;;;;;-1.20;99.90;;;;;;5054904;28;19924;-61
2024/01/19 01:31:24;;;;;;;;;;;-1.20;99.90;;;;;;5061644;28;19933;-61
2024/01/19 01:33:51;;;;;;;;;;;-1.20;99.90;;;;;;5059609;28;19924;-62
2024/01/19 01:36:18;;;;;;;;;;;-1.20;99.90;;;;;;5059014;28;19925;-61
2024/01/19 01:38:45;;;;;;;;;;;-1.30;99.90;;;;;;5055513;28;20651;-62
2024/01/19 01:41:12;;;;;;;;;;;-1.30;99.90;;;;;;5054801;28;19925;-66
2024/01/19 01:43:39;;;;;;;;;;;-1.30;99.90;;;;;;5051103;28;19932;-61
2024/01/19 01:46:06;;;;;;;;;;;-1.20;99.90;;;;;;5054460;28;20019;-62
2024/01/19 01:48:33;;;;;;;;;;;-1.20;99.90;;;;;;5053146;28;19982;-63
2024/01/19 01:51:00;;;;;;;;;;;-1.20;99.90;;;;;;5055201;28;20019;-62
2024/01/19 01:53:27;;;;;;;;;;;-1.20;99.90;;;;;;5053623;28;19929;-63
2024/01/19 01:55:54;;;;;;;;;;;-1.10;99.90;;;;;;5051349;28;19929;-63
2024/01/19 01:58:21;;;;;;;;;;;-1.10;99.90;;;;;;5055692;28;19937;-65
2024/01/19 02:00:48;;;;;;;;;;;-1.00;99.90;;;;;;5053808;28;19986;-64
2024/01/19 02:03:15;;;;;;;;;;;-1.00;99.90;;;;;;5057906;28;20480;-63
2024/01/19 02:05:41;;;;;;;;;;;-1.00;99.90;;;;;;5051900;28;19932;-64
2024/01/19 02:08:08;;;;;;;;;;;-1.00;99.90;;;;;;5053528;28;20287;-62
2024/01/19 02:10:36;;;;;;;;;;;-1.00;99.90;;;;;;5048461;28;19931;-68
2024/01/19 02:13:03;;;;;;;;;;;-1.00;99.90;;;;;;5048981;28;19924;-63
2024/01/19 02:15:30;;;;;;;;;;;-1.00;99.90;;;;;;5057230;28;20350;-61
2024/01/19 02:17:57;;;;;;;;;;;-0.90;99.90;;;;;;5054011;28;19925;-62
2024/01/19 02:20:24;;;;;;;;;;;-1.00;99.90;;;;;;5056117;28;19972;-63
2024/01/19 02:22:52;;;;;;;;;;;-0.90;99.90;;;;;;5054183;28;20024;-63
2024/01/19 02:25:19;;;;;;;;;;;-0.90;99.90;;;;;;5049587;28;19924;-66
2024/01/19 02:27:46;;;;;;;;;;;-0.90;99.90;;;;;;5049295;28;20336;-64
2024/01/19 02:30:13;;;;;;;;;;;-0.80;99.90;;;;;;5052509;28;19929;-64
2024/01/19 02:32:40;;;;;;;;;;;-0.80;99.90;;;;;;5053887;28;20423;-62
2024/01/19 02:35:07;;;;;;;;;;;-0.80;99.90;;;;;;5052489;28;19924;-60
2024/01/19 02:37:34;;;;;;;;;;;-0.80;99.90;;;;;;5053741;28;19925;-61
2024/01/19 02:40:02;;;;;;;;;;;-0.80;99.90;;;;;;5057485;28;19935;-65
2024/01/19 02:42:29;;;;;;;;;;;-0.80;99.90;;;;;;5055426;28;20263;-64
2024/01/19 02:44:59;;;;;;;;;;;-0.80;99.90;;;;;;5052132;28;19929;-61
2024/01/19 02:47:27;;;;;;;;;;;-0.80;99.90;;;;;;5059110;28;19979;-64
2024/01/19 02:49:54;;;;;;;;;;;-0.80;99.90;;;;;;5054575;28;20434;-61
2024/01/19 02:52:21;;;;;;;;;;;-0.70;99.90;;;;;;5050406;28;19964;-60
2024/01/19 02:54:48;;;;;;;;;;;-0.70;99.90;;;;;;5049618;28;20444;-64
2024/01/19 02:57:15;;;;;;;;;;;-0.70;99.90;;;;;;5052548;28;19951;-61
2024/01/19 02:59:42;;;;;;;;;;;-0.70;99.90;;;;;;5048146;28;20386;-62
2024/01/19 03:02:09;;;;;;;;;;;-0.70;99.90;;;;;;5052715;28;19961;-67
2024/01/19 03:04:35;;;;;;;;;;;-0.70;99.90;;;;;;5052389;28;19925;-62
2024/01/19 03:07:02;;;;;;;;;;;-0.70;99.90;;;;;;5057860;28;19932;-63
2024/01/19 03:09:29;;;;;;;;;;;-0.60;99.90;;;;;;5050913;28;19931;-63
2024/01/19 03:11:56;;;;;;;;;;;-0.60;99.90;;;;;;5047898;28;19929;-64
2024/01/19 03:14:23;;;;;;;;;;;-0.60;99.90;;;;;;5051163;28;19968;-62
2024/01/19 03:16:51;;;;;;;;;;;-0.70;99.90;;;;;;5051351;28;20394;-61
2024/01/19 03:19:18;;;;;;;;;;;-0.60;99.90;;;;;;5050781;28;19982;-68
2024/01/19 03:21:45;;;;;;;;;;;-0.70;99.90;;;;;;5052359;28;20430;-60
2024/01/19 03:24:11;;;;;;;;;;;-0.60;99.90;;;;;;5049731;28;20067;-61
2024/01/19 03:26:39;;;;;;;;;;;-0.60;99.90;;;;;;5053214;28;19928;-65
2024/01/19 03:29:06;;;;;;;;;;;-0.50;99.90;;;;;;5052937;28;19925;-62
2024/01/19 03:31:33;;;;;;;;;;;-0.50;99.90;;;;;;5045530;28;20348;-60
2024/01/19 03:34:00;;;;;;;;;;;-0.60;99.90;;;;;;5048042;28;19924;-62
2024/01/19 03:36:27;;;;;;;;;;;-0.50;99.90;;;;;;5054748;28;19994;-65
2024/01/19 03:38:54;;;;;;;;;;;-0.60;99.90;;;;;;5056430;28;19974;-60
2024/01/19 03:41:21;;;;;;;;;;;-0.50;99.90;;;;;;5050338;28;19931;-63
2024/01/19 03:43:48;;;;;;;;;;;-0.50;99.90;;;;;;5055350;28;19987;-60
2024/01/19 03:46:14;;;;;;;;;;;-0.50;99.90;;;;;;5051634;28;19972;-62
2024/01/19 03:48:41;;;;;;;;;;;-0.50;99.90;;;;;;5058509;28;19932;-66
2024/01/19 03:51:08;;;;;;;;;;;-0.50;99.90;;;;;;5060009;28;19924;-61
2024/01/19 03:53:35;;;;;;;;;;;-0.50;99.90;;;;;;5056328;28;20349;-60
2024/01/19 03:56:02;;;;;;;;;;;-0.50;99.90;;;;;;5056192;28;20002;-62
2024/01/19 03:58:29;;;;;;;;;;;-0.50;99.90;;;;;;5055462;28;19960;-62
2024/01/19 04:00:55;;;;;;;;;;;-0.50;99.90;;;;;;5055189;28;19933;-60
2024/01/19 04:03:22;;;;;;;;;;;-0.60;99.90;;;;;;5055672;28;19932;-63
2024/01/19 04:05:49;;;;;;;;;;;-0.60;99.90;;;;;;5054959;28;20349;-64
2024/01/19 04:08:16;;;;;;;;;;;-0.60;99.90;;;;;;5054317;28;19932;-61
2024/01/19 04:10:43;;;;;;;;;;;-0.60;99.90;;;;;;5048808;28;19928;-61
2024/01/19 04:13:10;;;;;;;;;;;-0.60;99.90;;;;;;5052998;28;20025;-62
2024/01/19 04:15:36;;;;;;;;;;;-0.60;99.90;;;;;;5037973;28;20274;-61
2024/01/19 04:18:04;;;;;;;;;;;-0.70;99.90;;;;;;5053232;28;19936;-65
2024/01/19 04:20:31;;;;;;;;;;;-0.70;99.90;;;;;;5056599;28;19967;-60
2024/01/19 04:22:58;;;;;;;;;;;-0.60;99.90;;;;;;5055568;28;19929;-61
2024/01/19 04:25:25;;;;;;;;;;;-0.60;99.90;;;;;;5052299;28;20024;-61
2024/01/19 04:27:51;;;;;;;;;;;-0.60;99.90;;;;;;5055280;28;19925;-63
2024/01/19 04:30:18;;;;;;;;;;;-0.60;99.90;;;;;;5054073;28;20027;-62
2024/01/19 04:32:45;;;;;;;;;;;-0.60;99.90;;;;;;5049932;28;20565;-60
2024/01/19 04:35:12;;;;;;;;;;;-0.60;99.90;;;;;;5049355;28;20027;-60
2024/01/19 04:37:39;;;;;;;;;;;-0.60;99.90;;;;;;5061104;28;19925;-62
2024/01/19 04:40:06;;;;;;;;;;;-0.60;99.90;;;;;;5054343;28;20047;-61
2024/01/19 04:42:33;;;;;;;;;;;-0.60;99.90;;;;;;5056145;28;20015;-61
2024/01/19 04:44:59;;;;;;;;;;;-0.50;99.90;;;;;;5049804;28;20447;-62
2024/01/19 04:47:26;;;;;;;;;;;-0.50;99.90;;;;;;5056034;28;20339;-62
2024/01/19 04:49:53;;;;;;;;;;;-0.50;99.90;;;;;;5047708;28;20382;-62
2024/01/19 04:52:20;;;;;;;;;;;-0.50;99.90;;;;;;5053193;28;20462;-63
2024/01/19 04:54:47;;;;;;;;;;;-0.50;99.90;;;;;;5047741;28;19994;-66
2024/01/19 04:57:14;;;;;;;;;;;-0.50;99.90;;;;;;5052202;28;19925;-61
2024/01/19 04:59:40;;;;;;;;;;;-0.50;99.90;;;;;;5050492;28;19925;-65
2024/01/19 05:02:07;;;;;;;;;;;-0.50;99.90;;;;;;5054090;28;20617;-61
2024/01/19 05:04:34;;;;;;;;;;;-0.50;99.90;;;;;;5054050;28;19944;-61
2024/01/19 05:07:01;;;;;;;;;;;-0.50;99.90;;;;;;5057341;28;20016;-64
2024/01/19 05:09:28;;;;;;;;;;;-0.50;99.90;;;;;;5053597;28;19925;-63
2024/01/19 05:11:55;;;;;;;;;;;-0.40;99.90;;;;;;5056233;28;19924;-61
2024/01/19 05:14:22;;;;;;;;;;;-0.40;99.90;;;;;;5056171;28;19946;-64
2024/01/19 05:16:48;;;;;;;;;;;-0.30;99.90;;;;;;5051404;28;20511;-61
2024/01/19 05:19:15;;;;;;;;;;;-0.30;99.90;;;;;;5051789;28;20006;-60
2024/01/19 05:21:42;;;;;;;;;;;-0.30;99.90;;;;;;5050059;28;19924;-63
2024/01/19 05:24:09;;;;;;;;;;;-0.20;99.90;;;;;;5056092;28;19932;-61
2024/01/19 05:26:36;;;;;;;;;;;-0.20;99.90;;;;;;5057453;28;19975;-62
2024/01/19 05:29:02;;;;;;;;;;;-0.10;99.90;;;;;;5053302;28;19929;-61
2024/01/19 05:31:29;;;;;;;;;;;-0.10;99.90;;;;;;5055105;28;19932;-63
2024/01/19 05:33:56;;;;;;;;;;;-0.10;99.90;;;;;;5056087;28;19933;-61
2024/01/19 05:36:23;;;;;;;;;;;-0.10;99.90;;;;;;5050677;28;20298;-61
2024/01/19 05:38:50;;;;;;;;;;;-0.10;99.90;;;;;;5053723;28;20030;-63
2024/01/19 05:41:17;;;;;;;;;;;-0.20;99.90;;;;;;5049271;28;19925;-62
2024/01/19 05:43:44;;;;;;;;;;;-0.20;99.90;;;;;;5049416;28;20023;-61
2024/01/19 05:46:12;;;;;;;;;;;-0.20;99.90;;;;;;5051930;28;19995;-62
2024/01/19 05:48:38;;;;;;;;;;;-0.30;99.90;;;;;;5054930;28;19960;-67
2024/01/19 05:51:15;;;;;;;;;;;-0.30;99.90;;;;;;5056141;28;19932;-68
2024/01/19 05:53:42;;;;;;;;;;;-0.20;99.90;;;;;;5054120;28;19925;-63
2024/01/19 05:56:09;;;;;;;;;;;-0.20;99.90;;;;;;5058145;28;19936;-61
2024/01/19 05:58:36;;;;;;;;;;;-0.20;99.90;;;;;;5053725;28;19932;-60
2024/01/19 06:01:03;;;;;;;;;;;-0.20;99.90;;;;;;5056552;28;19968;-62
2024/01/19 06:03:29;;;;;;;;;;;-0.20;99.90;;;;;;5050143;28;19935;-65
2024/01/19 06:05:56;;;;;;;;;;;-0.30;99.90;;;;;;5049306;28;20374;-61
2024/01/19 06:08:23;;;;;;;;;;;-0.20;99.90;;;;;;5052133;28;20428;-64
2024/01/19 06:10:50;;;;;;;;;;;-0.20;99.90;;;;;;5062700;28;19943;-64
2024/01/19 06:13:17;;;;;;;;;;;-0.30;99.90;;;;;;5054527;28;20272;-61
2024/01/19 06:15:44;;;;;;;;;;;-0.30;99.90;;;;;;5058550;28;19924;-61
2024/01/19 06:18:11;;;;;;;;;;;-0.20;99.90;;;;;;5054695;28;19924;-62
2024/01/19 06:20:42;;;;;;;;;;;-0.20;99.90;;;;;;5052805;28;19932;-62
2024/01/19 06:23:09;;;;;;;;;;;-0.30;99.90;;;;;;5049745;28;19934;-64
2024/01/19 06:25:36;;;;;;;;;;;-0.20;99.90;;;;;;5051097;28;20366;-61
2024/01/19 06:28:03;;;;;;;;;;;-0.20;99.90;;;;;;5052961;28;19924;-65
2024/01/19 06:30:30;;;;;;;;;;;-0.20;99.90;;;;;;5048213;28;20386;-62
2024/01/19 06:32:57;;;;;;;;;;;-0.20;99.90;;;;;;5051521;28;20304;-63
2024/01/19 06:35:24;;;;;;;;;;;-0.20;99.90;;;;;;5058526;28;20378;-60
2024/01/19 06:37:51;;;;;;;;;;;-0.20;99.90;;;;;;5057971;28;20380;-60
2024/01/19 06:40:18;;;;;;;;;;;-0.20;99.90;;;;;;5049152;28;20437;-61
2024/01/19 06:42:45;;;;;;;;;;;-0.20;99.90;;;;;;5054215;28;20054;-61
2024/01/19 06:45:18;;;;;;;;;;;-0.30;99.90;;;;;;5054692;28;19944;-62
2024/01/19 06:47:44;;;;;;;;;;;-0.30;99.90;;;;;;5046038;28;20328;-60
2024/01/19 06:50:11;;;;;;;;;;;-0.30;99.90;;;;;;5048770;28;19929;-61
2024/01/19 06:52:39;;;;;;;;;;;-0.30;99.90;;;;;;5049668;28;19998;-63
2024/01/19 06:55:06;;;;;;;;;;;-0.30;99.90;;;;;;5049213;28;19959;-61
2024/01/19 06:57:33;;;;;;;;;;;-0.30;99.90;;;;;;5059579;28;19925;-61
2024/01/19 06:59:59;;;;;;;;;;;-0.30;99.90;;;;;;5051056;28;20031;-61
2024/01/19 07:02:26;;;;;;;;;;;-0.30;99.90;;;;;;5053017;28;19929;-61
2024/01/19 07:04:53;;;;;;;;;;;-0.30;99.90;;;;;;5056870;28;19986;-62
2024/01/19 07:07:20;;;;;;;;;;;-0.30;99.90;;;;;;5054678;28;20294;-64
2024/01/19 07:09:47;;;;;;;;;;;-0.30;99.90;;;;;;5048948;28;19929;-66
2024/01/19 07:12:16;;;;;;;;;;;-0.30;99.90;;;;;;5053638;28;19936;-60
2024/01/19 07:14:43;;;;;;;;;;;-0.30;99.90;;;;;;5053704;28;19924;-65
2024/01/19 07:17:11;;;;;;;;;;;-0.30;99.90;;;;;;5050276;28;19924;-64
2024/01/19 07:19:42;;;;;;;;;;;-0.30;99.90;;;;;;5053367;28;20357;-62
2024/01/19 07:22:09;;;;;;;;;;;-0.30;99.90;;;;;;5055919;28;19932;-62
2024/01/19 07:24:36;;;;;;;;;;;-0.30;99.90;;;;;;5048545;28;19955;-61
2024/01/19 07:27:03;;;;;;;;;;;-0.30;99.90;;;;;;5055413;28;19929;-64
2024/01/19 07:29:31;;;;;;;;;;;-0.30;99.90;;;;;;5058142;28;20354;-62
2024/01/19 07:31:59;;;;;;;;;;;-0.30;99.90;;;;;;5053451;28;20002;-62
2024/01/19 07:34:27;;;;;;;;;;;-0.30;99.90;;;;;;5055839;28;20257;-64
2024/01/19 07:36:54;;;;;;;;;;;-0.30;99.90;;;;;;5054195;28;20413;-63
2024/01/19 07:39:23;;;;;;;;;;;-0.30;99.90;;;;;;5058288;28;19928;-61
2024/01/19 07:41:51;;;;;;;;;;;-0.30;99.90;;;;;;5048783;28;20641;-60
2024/01/19 07:44:18;;;;;;;;;;;-0.30;99.90;;;;;;5052710;28;19928;-61
2024/01/19 07:46:45;;;;;;;;;;;-0.20;99.90;;;;;;5057812;28;19933;-62
2024/01/19 07:49:12;;;;;;;;;;;-0.30;99.90;;;;;;5051571;28;19928;-62
2024/01/19 07:51:39;;;;;;;;;;;-0.30;99.90;;;;;;5058286;28;20018;-63
2024/01/19 07:54:08;;;;;;;;;;;-0.30;99.90;;;;;;5053518;28;19932;-60
2024/01/19 07:56:35;;;;;;;;;;;-0.30;99.90;;;;;;5053572;28;19925;-61
2024/01/19 07:59:03;;;;;;;;;;;-0.40;99.90;;;;;;5056756;28;20375;-62
2024/01/19 08:01:30;;;;;;;;;;;-0.30;99.90;;;;;;5053130;28;20291;-60
2024/01/19 08:03:57;;;;;;;;;;;-0.30;99.90;;;;;;5052850;28;19956;-62
2024/01/19 08:06:23;;;;;;;;;;;-0.30;99.90;;;;;;5048353;28;19925;-61
2024/01/19 08:08:50;;;;;;;;;;;-0.40;99.90;;;;;;5054461;28;19933;-61
2024/01/19 08:11:17;;;;;;;;;;;-0.40;99.90;;;;;;5054819;28;19978;-62
2024/01/19 08:13:44;;;;;;;;;;;-0.40;99.90;;;;;;5057244;28;19925;-62
2024/01/19 08:16:11;;;;;;;;;;;-0.40;99.90;;;;;;5054815;28;19925;-62
2024/01/19 08:18:38;;;;;;;;;;;-0.40;99.90;;;;;;5053152;28;20366;-63
2024/01/19 08:21:05;;;;;;;;;;;-0.40;99.90;;;;;;5056430;28;19929;-64
2024/01/19 08:23:33;;;;;;;;;;;-0.40;99.90;;;;;;5051341;28;20047;-61
2024/01/19 08:26:00;;;;;;;;;;;-0.40;99.90;;;;;;5054541;28;19936;-61
2024/01/19 08:28:28;;;;;;;;;;;-0.40;99.90;;;;;;5059146;28;20610;-63
2024/01/19 08:30:55;;;;;;;;;;;-0.40;99.90;;;;;;5057486;28;19982;-66
2024/01/19 08:33:22;;;;;;;;;;;-0.40;99.90;;;;;;5056894;28;19956;-66
2024/01/19 08:35:49;;;;;;;;;;;-0.40;99.90;;;;;;5060147;28;19924;-62
2024/01/19 08:38:17;;;;;;;;;;;-0.50;99.90;;;;;;5052423;28;20347;-61
2024/01/19 08:40:43;;;;;;;;;;;-0.40;99.90;;;;;;5052007;28;19931;-66
2024/01/19 08:43:10;;;;;;;;;;;-0.40;99.90;;;;;;5053582;28;20301;-69
2024/01/19 08:45:37;;;;;;;;;;;-0.40;99.90;;;;;;5054498;28;20231;-61
2024/01/19 08:48:05;;;;;;;;;;;-0.40;99.90;;;;;;5050691;28;19929;-65
2024/01/19 08:50:32;;;;;;;;;;;-0.40;99.90;;;;;;5053026;28;19924;-63
2024/01/19 08:52:59;;;;;;;;;;;-0.50;99.90;;;;;;5057137;28;19933;-61
2024/01/19 08:55:26;;;;;;;;;;;-0.40;99.90;;;;;;5057153;28;19932;-62
2024/01/19 08:57:53;;;;;;;;;;;-0.40;99.90;;;;;;5056084;28;19933;-63
2024/01/19 09:00:20;;;;;;;;;;;-0.50;99.90;;;;;;5058270;28;20015;-61
2024/01/19 09:02:47;;;;;;;;;;;-0.40;99.90;;;;;;5053395;28;20474;-63
2024/01/19 09:05:28;;;;;;;;;;;-0.40;99.90;;;;;;5051956;28;19931;-61
2024/01/19 09:07:55;;;;;;;;;;;-0.40;99.90;;;;;;5053405;28;19932;-60
2024/01/19 09:10:23;;;;;;;;;;;-0.40;99.90;;;;;;5052226;28;19986;-63
2024/01/19 09:12:50;;;;;;;;;;;-0.40;99.90;;;;;;5054562;28;20015;-60
2024/01/19 09:15:17;;;;;;;;;;;-0.50;99.90;;;;;;5048481;28;19925;-60
2024/01/19 09:17:44;;;;;;;;;;;-0.50;99.90;;;;;;5050209;28;19924;-63
2024/01/19 09:20:11;;;;;;;;;;;-0.50;99.90;;;;;;5053260;28;19925;-61
2024/01/19 09:22:38;;;;;;;;;;;-0.40;99.90;;;;;;5054505;28;19940;-64
2024/01/19 09:25:05;;;;;;;;;;;-0.50;99.90;;;;;;5051254;28;19928;-61
2024/01/19 09:27:33;;;;;;;;;;;-0.40;99.90;;;;;;5051910;28;19928;-64
2024/01/19 09:30:00;;;;;;;;;;;-0.50;99.90;;;;;;5053878;28;19925;-61
2024/01/19 09:32:27;;;;;;;;;;;-0.50;99.90;;;;;;5051987;28;20046;-61
2024/01/19 09:34:54;;;;;;;;;;;-0.50;99.90;;;;;;5015645;28;19929;-61
2024/01/19 09:37:20;;;;;;;;;;;-0.50;99.90;;;;;;5051542;28;19937;-61
2024/01/19 09:39:47;;;;;;;;;;;-0.50;99.90;;;;;;5051202;28;20017;-65
2024/01/19 09:42:26;;;;;;;;;;;-0.40;99.90;;;;;;5058084;28;20038;-63
2024/01/19 09:45:00;;;;;;;;;;;-0.40;99.90;;;;;;5056792;28;19929;-64
2024/01/19 09:47:31;;;;;;;;;;;-0.40;99.90;;;;;;5056572;28;19924;-61
2024/01/19 09:50:03;;;;;;;;;;;-0.40;99.90;;;;;;5050794;28;19933;-64
2024/01/19 09:52:53;;;;;;;;;;;-0.30;99.90;;;;;;5059228;28;19972;-61
2024/01/19 09:55:20;;;;;;;;;;;-0.30;99.90;;;;;;5049921;28;20280;-61
2024/01/19 09:57:48;;;;;;;;;;;-0.30;99.90;;;;;;5053463;28;19937;-63
2024/01/19 10:00:15;;;;;;;;;;;-0.30;99.90;;;;;;5050348;28;19935;-64
2024/01/19 10:02:46;;;;;;;;;;;-0.30;99.90;;;;;;5052786;28;19929;-66
2024/01/19 10:05:14;;;;;;;;;;;-0.30;99.90;;;;;;5051184;28;20040;-63
2024/01/19 10:07:42;;;;;;;;;;;-0.20;99.90;;;;;;5051723;28;20366;-62
2024/01/19 10:10:09;;;;;;;;;;;-0.30;99.90;;;;;;5047157;28;20041;-64
2024/01/19 10:12:37;;;;;;;;;;;-0.30;99.90;;;;;;5053017;28;19975;-61
2024/01/19 10:15:14;;;;;;;;;;;-0.20;99.90;;;;;;5054882;28;19999;-61
2024/01/19 10:17:42;;;;;;;;;;;-0.10;99.90;;;;;;5051811;28;20433;-66
2024/01/19 10:20:13;;;;;;;;;;;-0.20;99.90;;;;;;5053879;28;20038;-61
2024/01/19 10:22:40;;;;;;;;;;;-0.20;99.90;;;;;;5050147;28;20548;-66
2024/01/19 10:25:08;;;;;;;;;;;-0.20;99.90;;;;;;5045757;28;19935;-61
2024/01/19 10:27:48;;;;;;;;;;;-0.20;99.90;;;;;;5052977;28;20018;-61
2024/01/19 10:30:20;;;;;;;;;;;-0.20;99.90;;;;;;5053991;28;19924;-65
2024/01/19 10:32:48;;;;;;;;;;;-0.20;99.90;;;;;;5059101;28;19928;-61
2024/01/19 10:35:17;;;;;;;;;;;-0.20;99.90;;;;;;5050444;28;19936;-66
2024/01/19 10:37:44;;;;;;;;;;;-0.30;99.90;;;;;;5055382;28;20375;-63
2024/01/19 10:40:19;;;;;;;;;;;-0.30;99.90;;;;;;5051287;28;19924;-60
2024/01/19 10:42:47;;;;;;;;;;;-0.30;99.90;;;;;;5051101;28;19991;-61
2024/01/19 10:45:35;;;;;;;;;;;-0.30;99.90;;;;;;5056551;28;19928;-61
2024/01/19 10:48:04;;;;;;;;;;;-0.30;99.90;;;;;;5057333;28;19925;-65
2024/01/19 10:50:31;;;;;;;;;;;-0.30;99.90;;;;;;5055241;28;19931;-64
2024/01/19 10:52:59;;;;;;;;;;;-0.30;99.90;;;;;;5062494;28;19968;-69
2024/01/19 10:55:27;;;;;;;;;;;-0.30;99.90;;;;;;5058816;28;19968;-62
2024/01/19 10:57:55;;;;;;;;;;;-0.30;99.90;;;;;;5061262;28;20006;-61
2024/01/19 11:00:27;;;;;;;;;;;-0.30;99.90;;;;;;5056709;28;19932;-61
2024/01/19 11:02:55;;;;;;;;;;;-0.30;99.90;;;;;;5059938;28;19932;-68
2024/01/19 11:05:22;;;;;;;;;;;-0.20;99.90;;;;;;5059318;28;19962;-61
2024/01/19 11:07:53;;;;;;;;;;;-0.30;99.90;;;;;;5060994;28;20812;-67
2024/01/19 11:10:20;;;;;;;;;;;-0.20;99.90;;;;;;5056425;28;19933;-62
2024/01/19 11:12:57;;;;;;;;;;;-0.30;99.90;;;;;;5057433;28;19933;-61
2024/01/19 11:15:40;;;;;;;;;;;-0.30;99.90;;;;;;5056722;28;20453;-61
2024/01/19 11:18:07;;;;;;;;;;;-0.30;99.90;;;;;;5056913;28;19932;-63
2024/01/19 11:20:34;;;;;;;;;;;-0.30;99.90;;;;;;5063982;28;19934;-67
2024/01/19 11:23:02;;;;;;;;;;;-0.30;99.90;;;;;;5061970;28;19970;-62
2024/01/19 11:25:43;;;;;;;;;;;-0.30;99.90;;;;;;5058349;28;19928;-61
2024/01/19 11:28:20;;;;;;;;;;;-0.30;99.90;;;;;;5056437;28;19929;-67
2024/01/19 11:31:02;;;;;;;;;;;-0.30;99.90;;;;;;5054680;28;20466;-62
2024/01/19 11:33:31;;;;;;;;;;;-0.20;99.90;;;;;;5056193;28;20947;-61
2024/01/19 11:35:58;;;;;;;;;;;-0.20;99.90;;;;;;5053914;28;20028;-63
2024/01/19 11:38:51;;;;;;;;;;;-0.20;99.90;;;;;;5056738;28;19967;-63
2024/01/19 11:41:33;;;;;;;;;;;-0.20;99.90;;;;;;5059488;28;19937;-64
2024/01/19 11:44:03;;;;;;;;;;;-0.20;99.90;;;;;;5054973;28;19924;-61
2024/01/19 11:46:40;;;;;;;;;;;-0.20;99.90;;;;;;5062834;28;20414;-62
2024/01/19 11:49:07;;;;;;;;;;;-0.10;99.90;;;;;;5061347;28;19929;-62
2024/01/19 11:51:34;;;;;;;;;;;-0.10;99.90;;;;;;5065301;28;20282;-60
2024/01/19 11:54:02;;;;;;;;;;;-0.10;99.90;;;;;;5057574;28;19951;-65
2024/01/19 11:56:30;;;;;;;;;;;-0.10;99.90;;;;;;5059550;28;19929;-62
2024/01/19 11:58:58;;;;;;;;;;;-0.10;99.90;;;;;;5052845;28;19929;-63
2024/01/19 12:01:25;;;;;;;;;;;-0.10;99.90;;;;;;5046995;28;20019;-65
2024/01/19 12:03:55;;;;;;;;;;;-0.20;99.90;;;;;;5049520;28;19951;-66
2024/01/19 12:06:22;;;;;;;;;;;-0.20;99.90;;;;;;5052513;28;19971;-63
2024/01/19 12:09:09;;;;;;;;;;;-0.20;99.90;;;;;;5050448;28;19929;-62
2024/01/19 12:11:37;;;;;;;;;;;-0.10;99.90;;;;;;5055698;28;19928;-61
2024/01/19 12:14:04;;;;;;;;;;;-0.10;99.90;;;;;;5054875;28;20298;-63
2024/01/19 12:16:33;;;;;;;;;;;-0.10;99.90;;;;;;5054753;28;19928;-63
2024/01/19 12:19:00;;;;;;;;;;;-0.10;99.90;;;;;;5055707;28;20356;-63
2024/01/19 12:21:27;;;;;;;;;;;-0.20;99.90;;;;;;5054413;28;19925;-65
2024/01/19 12:23:57;;;;;;;;;;;-0.10;99.90;;;;;;5043993;28;19968;-61
2024/01/19 12:26:24;;;;;;;;;;;-0.20;99.90;;;;;;5048824;28;19925;-61
2024/01/19 12:28:51;;;;;;;;;;;-0.20;99.90;;;;;;5051158;28;19936;-61
2024/01/19 12:31:28;;;;;;;;;;;-0.20;99.90;;;;;;5044226;28;20012;-61
2024/01/19 12:33:55;;;;;;;;;;;-0.20;99.90;;;;;;5057264;28;20428;-62
2024/01/19 12:36:24;;;;;;;;;;;-0.20;99.90;;;;;;5055556;28;20294;-62
2024/01/19 12:39:05;;;;;;;;;;;-0.30;99.90;;;;;;5054421;28;20735;-60
2024/01/19 12:41:33;;;;;;;;;;;-0.30;99.90;;;;;;5051818;28;19929;-63
2024/01/19 12:44:00;;;;;;;;;;;-0.30;99.90;;;;;;5052470;28;20511;-63
2024/01/19 12:46:27;;;;;;;;;;;-0.30;99.90;;;;;;5051467;28;19925;-61
2024/01/19 12:48:58;;;;;;;;;;;-0.30;99.90;;;;;;5055815;28;19957;-62
2024/01/19 12:51:25;;;;;;;;;;;-0.40;99.90;;;;;;5059404;28;19925;-61
2024/01/19 12:53:53;;;;;;;;;;;-0.40;99.90;;;;;;5052816;28;20655;-61
2024/01/19 12:56:22;;;;;;;;;;;-0.40;99.90;;;;;;5054880;28;19991;-61
2024/01/19 12:58:49;;;;;;;;;;;-0.40;99.90;;;;;;5052318;28;19940;-64
2024/01/19 13:01:16;;;;;;;;;;;-0.40;99.90;;;;;;5049725;28;20290;-61
2024/01/19 13:03:43;;;;;;;;;;;-0.40;99.90;;;;;;5048399;28;19947;-60
2024/01/19 13:06:10;;;;;;;;;;;-0.40;99.90;;;;;;5050104;28;19928;-62
2024/01/19 13:08:37;;;;;;;;;;;-0.30;99.90;;;;;;5049654;28;19929;-63
2024/01/19 13:11:04;;;;;;;;;;;-0.30;99.90;;;;;;5048738;28;19928;-62
2024/01/19 13:13:31;;;;;;;;;;;-0.40;99.90;;;;;;5053753;28;20031;-62
2024/01/19 13:16:24;;;;;;;;;;;-0.30;99.90;;;;;;5057635;28;20031;-64
2024/01/19 13:19:04;;;;;;;;;;;-0.40;99.90;;;;;;5052874;28;20345;-60
2024/01/19 13:21:32;;;;;;;;;;;-0.40;99.90;;;;;;5056637;28;19932;-60
2024/01/19 13:23:59;;;;;;;;;;;-0.40;99.90;;;;;;5053688;28;20366;-66
2024/01/19 13:26:26;;;;;;;;;;;-0.40;99.90;;;;;;5056248;28;19933;-63
2024/01/19 13:28:52;;;;;;;;;;;-0.40;99.90;;;;;;5055084;28;19928;-61
2024/01/19 13:31:19;;;;;;;;;;;-0.40;99.90;;;;;;5048650;28;19964;-62
2024/01/19 13:33:47;;;;;;;;;;;-0.40;99.90;;;;;;5051447;28;20002;-63
2024/01/19 13:36:15;;;;;;;;;;;-0.40;99.90;;;;;;5058937;28;19935;-61
2024/01/19 13:38:42;;;;;;;;;;;-0.40;99.90;;;;;;5060037;28;20026;-64
2024/01/19 13:41:10;;;;;;;;;;;-0.30;99.90;;;;;;5055634;28;19963;-61
2024/01/19 13:43:40;;;;;;;;;;;-0.30;99.90;;;;;;5051586;28;19929;-63
2024/01/19 13:46:07;;;;;;;;;;;-0.30;99.90;;;;;;5054525;28;20294;-61
2024/01/19 13:48:34;;;;;;;;;;;-0.30;99.90;;;;;;5057384;28;19924;-61
2024/01/19 13:51:00;;;;;;;;;;;-0.30;99.90;;;;;;5051250;28;19986;-60
2024/01/19 13:53:27;;;;;;;;;;;-0.30;99.90;;;;;;5052267;28;19928;-62
2024/01/19 13:55:54;;;;;;;;;;;-0.40;99.90;;;;;;5050055;28;19936;-62
2024/01/19 13:58:21;;;;;;;;;;;-0.40;99.90;;;;;;5049156;28;20032;-61
2024/01/19 14:00:48;;;;;;;;;;;-0.40;99.90;;;;;;5060557;28;19950;-63
2024/01/19 14:03:15;;;;;;;;;;;-0.40;99.90;;;;;;5053790;28;19925;-61
2024/01/19 14:05:46;;;;;;;;;;;-0.40;99.90;;;;;;5054839;28;19935;-62
2024/01/19 14:08:14;;;;;;;;;;;-0.40;99.90;;;;;;5054083;28;20028;-61
2024/01/19 14:10:44;;;;;;;;;;;-0.40;99.90;;;;;;5052102;28;19924;-60
2024/01/19 14:13:12;;;;;;;;;;;-0.30;99.90;;;;;;5050040;28;19990;-60
2024/01/19 14:15:39;;;;;;;;;;;-0.30;99.90;;;;;;5049741;28;20300;-62
2024/01/19 14:18:17;;;;;;;;;;;-0.30;99.90;;;;;;5050631;28;20024;-60
2024/01/19 14:20:45;;;;;;;;;;;-0.30;99.90;;;;;;5052074;28;19925;-62